sensor_id;sensor_type;location;lat;lon;timestamp;P1;durP1;ratioP1;P2;durP2;ratioP2
8100;SDS011;4093;53.470;9.832;2023-07-29T00:00:00;4.68;;;3.30;;
8100;SDS011;4093;53.470;9.832;2023-07-29T00:02:28;4.03;;;3.67;;
8100;SDS011;4093;53.470;9.832;2023-07-29T00:04:58;3.88;;;3.10;;
8100;SDS011;4093;53.470;9.832;2023-07-29T00:07:26;3.45;;;3.22;;
8100;SDS011;4093;53.470;9.832;2023-07-29T00:09:55;3.88;;;3.53;;
8100;SDS011;4093;53.470;9.832;2023-07-29T00:12:23;4.55;;;3.38;;
8100;SDS011;4093;53.470;9.832;2023-07-29T00:14:50;3.72;;;3.30;;
8100;SDS011;4093;53.470;9.832;2023-07-29T00:17:18;4.60;;;3.85;;
8100;SDS011;4093;53.470;9.832;2023-07-29T00:19:47;3.92;;;3.60;;
8100;SDS011;4093;53.470;9.832;2023-07-29T00:22:14;4.35;;;3.70;;
8100;SDS011;4093;53.470;9.832;2023-07-29T00:24:42;4.30;;;3.90;;
8100;SDS011;4093;53.470;9.832;2023-07-29T00:27:11;5.57;;;4.22;;
8100;SDS011;4093;53.470;9.832;2023-07-29T00:29:39;6.22;;;4.38;;
8100;SDS011;4093;53.470;9.832;2023-07-29T00:32:06;4.93;;;4.43;;
8100;SDS011;4093;53.470;9.832;2023-07-29T00:34:34;4.60;;;4.30;;
8100;SDS011;4093;53.470;9.832;2023-07-29T00:37:02;5.47;;;4.72;;
8100;SDS011;4093;53.470;9.832;2023-07-29T00:39:32;7.35;;;5.07;;
8100;SDS011;4093;53.470;9.832;2023-07-29T00:42:00;5.32;;;4.82;;
8100;SDS011;4093;53.470;9.832;2023-07-29T00:44:29;5.65;;;5.05;;
8100;SDS011;4093;53.470;9.832;2023-07-29T00:46:57;5.97;;;5.38;;
8100;SDS011;4093;53.470;9.832;2023-07-29T00:49:28;7.40;;;5.93;;
8100;SDS011;4093;53.470;9.832;2023-07-29T00:51:56;7.05;;;5.60;;
8100;SDS011;4093;53.470;9.832;2023-07-29T00:54:24;6.22;;;5.63;;
8100;SDS011;4093;53.470;9.832;2023-07-29T00:56:51;6.93;;;5.57;;
8100;SDS011;4093;53.470;9.832;2023-07-29T00:59:19;5.80;;;4.72;;
8100;SDS011;4093;53.470;9.832;2023-07-29T01:01:48;5.40;;;5.00;;
8100;SDS011;4093;53.470;9.832;2023-07-29T01:04:17;6.00;;;5.50;;
8100;SDS011;4093;53.470;9.832;2023-07-29T01:06:46;6.28;;;5.47;;
8100;SDS011;4093;53.470;9.832;2023-07-29T01:09:23;6.70;;;4.55;;
8100;SDS011;4093;53.470;9.832;2023-07-29T01:12:00;5.35;;;4.80;;
8100;SDS011;4093;53.470;9.832;2023-07-29T01:14:39;4.90;;;4.50;;
8100;SDS011;4093;53.470;9.832;2023-07-29T01:17:15;5.28;;;4.53;;
8100;SDS011;4093;53.470;9.832;2023-07-29T01:19:55;4.65;;;3.75;;
8100;SDS011;4093;53.470;9.832;2023-07-29T01:22:29;5.13;;;4.72;;
8100;SDS011;4093;53.470;9.832;2023-07-29T01:24:59;5.15;;;4.50;;
8100;SDS011;4093;53.470;9.832;2023-07-29T01:27:27;6.15;;;5.55;;
8100;SDS011;4093;53.470;9.832;2023-07-29T01:29:55;5.97;;;5.38;;
8100;SDS011;4093;53.470;9.832;2023-07-29T01:32:25;5.47;;;4.82;;
8100;SDS011;4093;53.470;9.832;2023-07-29T01:34:58;5.65;;;5.15;;
8100;SDS011;4093;53.470;9.832;2023-07-29T01:37:32;6.75;;;5.35;;
8100;SDS011;4093;53.470;9.832;2023-07-29T01:40:04;7.03;;;6.43;;
8100;SDS011;4093;53.470;9.832;2023-07-29T01:42:35;5.65;;;5.07;;
8100;SDS011;4093;53.470;9.832;2023-07-29T01:45:03;6.25;;;5.68;;
8100;SDS011;4093;53.470;9.832;2023-07-29T01:47:32;7.18;;;6.25;;
8100;SDS011;4093;53.470;9.832;2023-07-29T01:50:00;6.43;;;5.82;;
8100;SDS011;4093;53.470;9.832;2023-07-29T01:52:27;6.82;;;6.20;;
8100;SDS011;4093;53.470;9.832;2023-07-29T01:54:55;6.63;;;6.03;;
8100;SDS011;4093;53.470;9.832;2023-07-29T01:57:24;6.43;;;5.82;;
8100;SDS011;4093;53.470;9.832;2023-07-29T01:59:52;6.80;;;4.90;;
8100;SDS011;4093;53.470;9.832;2023-07-29T02:02:19;7.45;;;6.68;;
8100;SDS011;4093;53.470;9.832;2023-07-29T02:04:47;6.55;;;5.97;;
8100;SDS011;4093;53.470;9.832;2023-07-29T02:07:17;7.03;;;6.32;;
8100;SDS011;4093;53.470;9.832;2023-07-29T02:09:45;5.78;;;5.28;;
8100;SDS011;4093;53.470;9.832;2023-07-29T02:12:13;7.28;;;6.57;;
8100;SDS011;4093;53.470;9.832;2023-07-29T02:14:42;4.68;;;4.28;;
8100;SDS011;4093;53.470;9.832;2023-07-29T02:17:10;5.60;;;5.10;;
8100;SDS011;4093;53.470;9.832;2023-07-29T02:19:38;5.60;;;5.10;;
8100;SDS011;4093;53.470;9.832;2023-07-29T02:22:05;5.68;;;5.18;;
8100;SDS011;4093;53.470;9.832;2023-07-29T02:24:33;5.30;;;4.90;;
8100;SDS011;4093;53.470;9.832;2023-07-29T02:27:01;8.88;;;7.25;;
8100;SDS011;4093;53.470;9.832;2023-07-29T02:29:29;9.13;;;7.15;;
8100;SDS011;4093;53.470;9.832;2023-07-29T02:32:00;8.52;;;6.80;;
8100;SDS011;4093;53.470;9.832;2023-07-29T02:34:28;9.93;;;6.60;;
8100;SDS011;4093;53.470;9.832;2023-07-29T02:36:56;6.43;;;5.82;;
8100;SDS011;4093;53.470;9.832;2023-07-29T02:39:24;7.95;;;7.25;;
8100;SDS011;4093;53.470;9.832;2023-07-29T02:41:52;7.97;;;7.20;;
8100;SDS011;4093;53.470;9.832;2023-07-29T02:44:21;8.18;;;7.20;;
8100;SDS011;4093;53.470;9.832;2023-07-29T02:46:49;7.95;;;6.70;;
8100;SDS011;4093;53.470;9.832;2023-07-29T02:49:19;7.88;;;7.15;;
8100;SDS011;4093;53.470;9.832;2023-07-29T02:51:47;7.97;;;7.18;;
8100;SDS011;4093;53.470;9.832;2023-07-29T02:54:15;7.38;;;6.68;;
8100;SDS011;4093;53.470;9.832;2023-07-29T02:56:43;7.00;;;6.40;;
8100;SDS011;4093;53.470;9.832;2023-07-29T02:59:11;8.60;;;7.30;;
8100;SDS011;4093;53.470;9.832;2023-07-29T03:01:38;7.00;;;6.40;;
8100;SDS011;4093;53.470;9.832;2023-07-29T03:04:06;9.38;;;7.10;;
8100;SDS011;4093;53.470;9.832;2023-07-29T03:06:35;9.48;;;8.45;;
8100;SDS011;4093;53.470;9.832;2023-07-29T03:09:03;9.77;;;8.77;;
8100;SDS011;4093;53.470;9.832;2023-07-29T03:11:32;8.85;;;8.05;;
8100;SDS011;4093;53.470;9.832;2023-07-29T03:13:59;10.20;;;8.55;;
8100;SDS011;4093;53.470;9.832;2023-07-29T03:16:28;7.97;;;7.22;;
8100;SDS011;4093;53.470;9.832;2023-07-29T03:18:56;11.73;;;10.57;;
8100;SDS011;4093;53.470;9.832;2023-07-29T03:21:23;11.85;;;10.55;;
8100;SDS011;4093;53.470;9.832;2023-07-29T03:23:53;17.08;;;13.02;;
8100;SDS011;4093;53.470;9.832;2023-07-29T03:26:20;15.77;;;13.98;;
8100;SDS011;4093;53.470;9.832;2023-07-29T03:28:48;16.15;;;14.32;;
8100;SDS011;4093;53.470;9.832;2023-07-29T03:31:16;22.00;;;15.98;;
8100;SDS011;4093;53.470;9.832;2023-07-29T03:33:47;18.65;;;15.82;;
8100;SDS011;4093;53.470;9.832;2023-07-29T03:36:15;17.63;;;15.75;;
8100;SDS011;4093;53.470;9.832;2023-07-29T03:38:42;16.92;;;14.30;;
8100;SDS011;4093;53.470;9.832;2023-07-29T03:41:12;22.70;;;18.10;;
8100;SDS011;4093;53.470;9.832;2023-07-29T03:43:40;20.20;;;17.40;;
8100;SDS011;4093;53.470;9.832;2023-07-29T03:46:07;21.23;;;17.10;;
8100;SDS011;4093;53.470;9.832;2023-07-29T03:48:38;22.27;;;17.80;;
8100;SDS011;4093;53.470;9.832;2023-07-29T03:51:05;22.38;;;18.27;;
8100;SDS011;4093;53.470;9.832;2023-07-29T03:53:33;23.85;;;20.60;;
8100;SDS011;4093;53.470;9.832;2023-07-29T03:56:01;24.00;;;19.42;;
8100;SDS011;4093;53.470;9.832;2023-07-29T03:58:30;25.88;;;22.33;;
8100;SDS011;4093;53.470;9.832;2023-07-29T04:00:57;29.73;;;22.20;;
8100;SDS011;4093;53.470;9.832;2023-07-29T04:03:25;30.17;;;22.98;;
8100;SDS011;4093;53.470;9.832;2023-07-29T04:05:53;28.63;;;22.50;;
8100;SDS011;4093;53.470;9.832;2023-07-29T04:08:21;29.95;;;23.40;;
8100;SDS011;4093;53.470;9.832;2023-07-29T04:10:48;25.15;;;21.33;;
8100;SDS011;4093;53.470;9.832;2023-07-29T04:13:16;29.98;;;25.10;;
8100;SDS011;4093;53.470;9.832;2023-07-29T04:15:46;31.40;;;25.35;;
8100;SDS011;4093;53.470;9.832;2023-07-29T04:18:13;30.58;;;24.55;;
8100;SDS011;4093;53.470;9.832;2023-07-29T04:20:41;35.88;;;26.98;;
8100;SDS011;4093;53.470;9.832;2023-07-29T04:23:09;37.38;;;27.05;;
8100;SDS011;4093;53.470;9.832;2023-07-29T04:25:36;35.47;;;27.45;;
8100;SDS011;4093;53.470;9.832;2023-07-29T04:28:04;40.65;;;28.92;;
8100;SDS011;4093;53.470;9.832;2023-07-29T04:30:32;37.10;;;27.38;;
8100;SDS011;4093;53.470;9.832;2023-07-29T04:33:01;39.33;;;29.27;;
8100;SDS011;4093;53.470;9.832;2023-07-29T04:35:29;34.53;;;27.55;;
8100;SDS011;4093;53.470;9.832;2023-07-29T04:37:57;40.47;;;30.25;;
8100;SDS011;4093;53.470;9.832;2023-07-29T04:40:24;35.05;;;28.45;;
8100;SDS011;4093;53.470;9.832;2023-07-29T04:42:52;42.97;;;31.83;;
8100;SDS011;4093;53.470;9.832;2023-07-29T04:45:20;42.63;;;32.50;;
8100;SDS011;4093;53.470;9.832;2023-07-29T04:47:47;43.55;;;32.60;;
8100;SDS011;4093;53.470;9.832;2023-07-29T04:50:17;41.55;;;32.25;;
8100;SDS011;4093;53.470;9.832;2023-07-29T04:52:44;43.35;;;32.72;;
8100;SDS011;4093;53.470;9.832;2023-07-29T04:55:12;47.00;;;34.88;;
8100;SDS011;4093;53.470;9.832;2023-07-29T04:57:40;40.85;;;31.05;;
8100;SDS011;4093;53.470;9.832;2023-07-29T05:00:08;46.20;;;32.95;;
8100;SDS011;4093;53.470;9.832;2023-07-29T05:02:37;43.63;;;34.58;;
8100;SDS011;4093;53.470;9.832;2023-07-29T05:05:05;36.13;;;27.30;;
8100;SDS011;4093;53.470;9.832;2023-07-29T05:07:35;42.25;;;32.10;;
8100;SDS011;4093;53.470;9.832;2023-07-29T05:10:03;43.05;;;33.70;;
8100;SDS011;4093;53.470;9.832;2023-07-29T05:12:31;43.50;;;32.30;;
8100;SDS011;4093;53.470;9.832;2023-07-29T05:15:00;48.72;;;34.92;;
8100;SDS011;4093;53.470;9.832;2023-07-29T05:17:27;42.53;;;32.33;;
8100;SDS011;4093;53.470;9.832;2023-07-29T05:19:55;36.97;;;29.67;;
8100;SDS011;4093;53.470;9.832;2023-07-29T05:22:23;40.72;;;29.90;;
8100;SDS011;4093;53.470;9.832;2023-07-29T05:24:52;35.22;;;27.83;;
8100;SDS011;4093;53.470;9.832;2023-07-29T05:27:20;40.08;;;29.17;;
8100;SDS011;4093;53.470;9.832;2023-07-29T05:29:48;29.00;;;23.52;;
8100;SDS011;4093;53.470;9.832;2023-07-29T05:32:15;36.20;;;27.85;;
8100;SDS011;4093;53.470;9.832;2023-07-29T05:34:43;30.25;;;24.83;;
8100;SDS011;4093;53.470;9.832;2023-07-29T05:37:11;27.17;;;22.15;;
8100;SDS011;4093;53.470;9.832;2023-07-29T05:39:38;33.30;;;25.38;;
8100;SDS011;4093;53.470;9.832;2023-07-29T05:42:07;32.65;;;24.05;;
8100;SDS011;4093;53.470;9.832;2023-07-29T05:44:35;32.55;;;25.90;;
8100;SDS011;4093;53.470;9.832;2023-07-29T05:47:03;32.38;;;26.55;;
8100;SDS011;4093;53.470;9.832;2023-07-29T05:49:31;40.17;;;27.45;;
8100;SDS011;4093;53.470;9.832;2023-07-29T05:51:59;36.00;;;28.27;;
8100;SDS011;4093;53.470;9.832;2023-07-29T05:54:27;38.35;;;29.33;;
8100;SDS011;4093;53.470;9.832;2023-07-29T05:56:54;40.13;;;30.25;;
8100;SDS011;4093;53.470;9.832;2023-07-29T05:59:23;36.22;;;30.02;;
8100;SDS011;4093;53.470;9.832;2023-07-29T06:01:51;36.83;;;29.10;;
8100;SDS011;4093;53.470;9.832;2023-07-29T06:04:19;39.08;;;31.23;;
8100;SDS011;4093;53.470;9.832;2023-07-29T06:06:46;38.42;;;31.35;;
8100;SDS011;4093;53.470;9.832;2023-07-29T06:09:14;37.60;;;28.90;;
8100;SDS011;4093;53.470;9.832;2023-07-29T06:11:42;39.75;;;29.75;;
8100;SDS011;4093;53.470;9.832;2023-07-29T06:14:09;42.92;;;34.55;;
8100;SDS011;4093;53.470;9.832;2023-07-29T06:16:38;36.78;;;30.83;;
8100;SDS011;4093;53.470;9.832;2023-07-29T06:19:06;36.85;;;29.77;;
8100;SDS011;4093;53.470;9.832;2023-07-29T06:21:35;40.15;;;34.45;;
8100;SDS011;4093;53.470;9.832;2023-07-29T06:24:03;37.90;;;31.88;;
8100;SDS011;4093;53.470;9.832;2023-07-29T06:26:31;33.15;;;28.52;;
8100;SDS011;4093;53.470;9.832;2023-07-29T06:28:58;34.88;;;28.17;;
8100;SDS011;4093;53.470;9.832;2023-07-29T06:31:26;31.90;;;26.95;;
8100;SDS011;4093;53.470;9.832;2023-07-29T06:33:55;30.17;;;25.38;;
8100;SDS011;4093;53.470;9.832;2023-07-29T06:36:23;33.08;;;27.65;;
8100;SDS011;4093;53.470;9.832;2023-07-29T06:38:50;27.98;;;23.67;;
8100;SDS011;4093;53.470;9.832;2023-07-29T06:41:18;32.35;;;25.73;;
8100;SDS011;4093;53.470;9.832;2023-07-29T06:43:46;26.73;;;22.67;;
8100;SDS011;4093;53.470;9.832;2023-07-29T06:46:13;29.70;;;23.65;;
8100;SDS011;4093;53.470;9.832;2023-07-29T06:48:41;25.35;;;22.65;;
8100;SDS011;4093;53.470;9.832;2023-07-29T06:51:10;26.83;;;23.27;;
8100;SDS011;4093;53.470;9.832;2023-07-29T06:53:38;31.08;;;22.20;;
8100;SDS011;4093;53.470;9.832;2023-07-29T06:56:06;24.17;;;21.15;;
8100;SDS011;4093;53.470;9.832;2023-07-29T06:58:34;23.77;;;21.23;;
8100;SDS011;4093;53.470;9.832;2023-07-29T07:01:02;26.20;;;22.65;;
8100;SDS011;4093;53.470;9.832;2023-07-29T07:03:29;25.52;;;21.58;;
8100;SDS011;4093;53.470;9.832;2023-07-29T07:05:57;26.67;;;22.00;;
8100;SDS011;4093;53.470;9.832;2023-07-29T07:08:27;27.98;;;21.73;;
8100;SDS011;4093;53.470;9.832;2023-07-29T07:10:56;27.55;;;19.77;;
8100;SDS011;4093;53.470;9.832;2023-07-29T07:13:25;24.85;;;19.98;;
8100;SDS011;4093;53.470;9.832;2023-07-29T07:15:54;23.50;;;19.50;;
8100;SDS011;4093;53.470;9.832;2023-07-29T07:18:22;25.60;;;20.17;;
8100;SDS011;4093;53.470;9.832;2023-07-29T07:20:50;19.27;;;16.05;;
8100;SDS011;4093;53.470;9.832;2023-07-29T07:23:18;22.45;;;19.00;;
8100;SDS011;4093;53.470;9.832;2023-07-29T07:25:47;21.80;;;18.05;;
8100;SDS011;4093;53.470;9.832;2023-07-29T07:28:15;20.35;;;16.77;;
8100;SDS011;4093;53.470;9.832;2023-07-29T07:30:43;21.75;;;17.20;;
8100;SDS011;4093;53.470;9.832;2023-07-29T07:33:10;21.13;;;17.02;;
8100;SDS011;4093;53.470;9.832;2023-07-29T07:35:38;20.63;;;17.42;;
8100;SDS011;4093;53.470;9.832;2023-07-29T07:38:06;19.80;;;17.67;;
8100;SDS011;4093;53.470;9.832;2023-07-29T07:40:36;22.85;;;17.88;;
8100;SDS011;4093;53.470;9.832;2023-07-29T07:43:05;21.48;;;17.95;;
8100;SDS011;4093;53.470;9.832;2023-07-29T07:45:32;19.27;;;17.27;;
8100;SDS011;4093;53.470;9.832;2023-07-29T07:48:00;21.65;;;16.17;;
8100;SDS011;4093;53.470;9.832;2023-07-29T07:50:29;21.65;;;16.80;;
8100;SDS011;4093;53.470;9.832;2023-07-29T07:52:57;16.30;;;14.32;;
8100;SDS011;4093;53.470;9.832;2023-07-29T07:55:25;17.38;;;14.85;;
8100;SDS011;4093;53.470;9.832;2023-07-29T07:57:53;17.77;;;15.10;;
8100;SDS011;4093;53.470;9.832;2023-07-29T08:00:22;21.63;;;18.40;;
8100;SDS011;4093;53.470;9.832;2023-07-29T08:02:50;19.38;;;16.48;;
8100;SDS011;4093;53.470;9.832;2023-07-29T08:05:18;18.45;;;16.33;;
8100;SDS011;4093;53.470;9.832;2023-07-29T08:07:46;23.15;;;17.55;;
8100;SDS011;4093;53.470;9.832;2023-07-29T08:10:14;18.20;;;16.40;;
8100;SDS011;4093;53.470;9.832;2023-07-29T08:12:41;18.77;;;16.73;;
8100;SDS011;4093;53.470;9.832;2023-07-29T08:15:09;17.25;;;15.45;;
8100;SDS011;4093;53.470;9.832;2023-07-29T08:17:38;20.35;;;17.92;;
8100;SDS011;4093;53.470;9.832;2023-07-29T08:20:06;18.15;;;14.32;;
8100;SDS011;4093;53.470;9.832;2023-07-29T08:22:35;21.45;;;17.45;;
8100;SDS011;4093;53.470;9.832;2023-07-29T08:25:03;20.20;;;16.65;;
8100;SDS011;4093;53.470;9.832;2023-07-29T08:27:33;18.40;;;15.80;;
8100;SDS011;4093;53.470;9.832;2023-07-29T08:30:00;18.73;;;16.73;;
8100;SDS011;4093;53.470;9.832;2023-07-29T08:32:28;18.35;;;16.45;;
8100;SDS011;4093;53.470;9.832;2023-07-29T08:34:57;20.05;;;16.92;;
8100;SDS011;4093;53.470;9.832;2023-07-29T08:37:25;15.75;;;14.13;;
8100;SDS011;4093;53.470;9.832;2023-07-29T08:39:54;17.52;;;15.70;;
8100;SDS011;4093;53.470;9.832;2023-07-29T08:42:22;20.55;;;17.13;;
8100;SDS011;4093;53.470;9.832;2023-07-29T08:44:53;18.55;;;16.55;;
8100;SDS011;4093;53.470;9.832;2023-07-29T08:47:22;20.02;;;17.08;;
8100;SDS011;4093;53.470;9.832;2023-07-29T08:49:50;19.63;;;17.63;;
8100;SDS011;4093;53.470;9.832;2023-07-29T08:52:20;18.63;;;16.67;;
8100;SDS011;4093;53.470;9.832;2023-07-29T08:54:49;18.10;;;15.38;;
8100;SDS011;4093;53.470;9.832;2023-07-29T08:57:18;18.33;;;16.48;;
8100;SDS011;4093;53.470;9.832;2023-07-29T08:59:48;17.17;;;15.35;;
8100;SDS011;4093;53.470;9.832;2023-07-29T09:02:15;19.10;;;17.15;;
8100;SDS011;4093;53.470;9.832;2023-07-29T09:04:43;22.35;;;18.13;;
8100;SDS011;4093;53.470;9.832;2023-07-29T09:07:11;17.92;;;15.85;;
8100;SDS011;4093;53.470;9.832;2023-07-29T09:09:41;17.98;;;16.10;;
8100;SDS011;4093;53.470;9.832;2023-07-29T09:12:08;19.52;;;16.52;;
8100;SDS011;4093;53.470;9.832;2023-07-29T09:14:37;16.58;;;14.90;;
8100;SDS011;4093;53.470;9.832;2023-07-29T09:17:06;14.82;;;13.32;;
8100;SDS011;4093;53.470;9.832;2023-07-29T09:19:34;15.13;;;13.68;;
8100;SDS011;4093;53.470;9.832;2023-07-29T09:22:03;14.85;;;13.32;;
8100;SDS011;4093;53.470;9.832;2023-07-29T09:24:31;14.45;;;13.00;;
8100;SDS011;4093;53.470;9.832;2023-07-29T09:27:01;14.52;;;13.02;;
8100;SDS011;4093;53.470;9.832;2023-07-29T09:29:29;13.60;;;12.30;;
8100;SDS011;4093;53.470;9.832;2023-07-29T09:34:46;12.43;;;11.18;;
8100;SDS011;4093;53.470;9.832;2023-07-29T09:37:17;11.65;;;10.45;;
8100;SDS011;4093;53.470;9.832;2023-07-29T09:39:45;11.80;;;10.60;;
8100;SDS011;4093;53.470;9.832;2023-07-29T09:42:18;8.95;;;8.10;;
8100;SDS011;4093;53.470;9.832;2023-07-29T09:44:48;9.02;;;8.23;;
8100;SDS011;4093;53.470;9.832;2023-07-29T09:47:19;12.50;;;8.93;;
8100;SDS011;4093;53.470;9.832;2023-07-29T09:49:48;9.15;;;8.10;;
8100;SDS011;4093;53.470;9.832;2023-07-29T09:52:16;7.15;;;6.45;;
8100;SDS011;4093;53.470;9.832;2023-07-29T09:54:44;5.50;;;5.00;;
8100;SDS011;4093;53.470;9.832;2023-07-29T09:57:13;5.50;;;5.03;;
8100;SDS011;4093;53.470;9.832;2023-07-29T09:59:43;6.72;;;5.68;;
8100;SDS011;4093;53.470;9.832;2023-07-29T10:02:20;5.97;;;4.90;;
8100;SDS011;4093;53.470;9.832;2023-07-29T10:04:48;4.90;;;4.47;;
8100;SDS011;4093;53.470;9.832;2023-07-29T10:07:17;5.05;;;4.45;;
8100;SDS011;4093;53.470;9.832;2023-07-29T10:09:46;4.60;;;4.20;;
8100;SDS011;4093;53.470;9.832;2023-07-29T10:12:16;4.78;;;4.38;;
8100;SDS011;4093;53.470;9.832;2023-07-29T10:14:47;5.78;;;4.30;;
8100;SDS011;4093;53.470;9.832;2023-07-29T10:17:15;5.22;;;3.97;;
8100;SDS011;4093;53.470;9.832;2023-07-29T10:19:43;4.78;;;3.90;;
8100;SDS011;4093;53.470;9.832;2023-07-29T10:22:11;4.57;;;4.18;;
8100;SDS011;4093;53.470;9.832;2023-07-29T10:24:43;4.13;;;3.72;;
8100;SDS011;4093;53.470;9.832;2023-07-29T10:27:13;5.22;;;3.50;;
8100;SDS011;4093;53.470;9.832;2023-07-29T10:29:47;3.70;;;3.40;;
8100;SDS011;4093;53.470;9.832;2023-07-29T10:32:16;4.20;;;3.10;;
8100;SDS011;4093;53.470;9.832;2023-07-29T10:34:44;4.28;;;3.60;;
8100;SDS011;4093;53.470;9.832;2023-07-29T10:37:12;4.32;;;3.33;;
8100;SDS011;4093;53.470;9.832;2023-07-29T10:39:40;4.00;;;3.22;;
8100;SDS011;4093;53.470;9.832;2023-07-29T10:42:19;3.35;;;3.05;;
8100;SDS011;4093;53.470;9.832;2023-07-29T10:44:51;3.67;;;3.17;;
8100;SDS011;4093;53.470;9.832;2023-07-29T10:47:23;3.20;;;2.90;;
8100;SDS011;4093;53.470;9.832;2023-07-29T10:49:53;3.53;;;3.20;;
8100;SDS011;4093;53.470;9.832;2023-07-29T10:52:40;4.35;;;3.60;;
8100;SDS011;4093;53.470;9.832;2023-07-29T10:55:25;4.35;;;3.53;;
8100;SDS011;4093;53.470;9.832;2023-07-29T10:58:07;3.88;;;3.50;;
8100;SDS011;4093;53.470;9.832;2023-07-29T11:00:37;4.40;;;3.78;;
8100;SDS011;4093;53.470;9.832;2023-07-29T11:03:06;4.22;;;3.67;;
8100;SDS011;4093;53.470;9.832;2023-07-29T11:05:45;4.50;;;4.03;;
8100;SDS011;4093;53.470;9.832;2023-07-29T11:08:18;5.03;;;4.43;;
8100;SDS011;4093;53.470;9.832;2023-07-29T11:11:01;4.53;;;4.10;;
8100;SDS011;4093;53.470;9.832;2023-07-29T11:13:31;3.80;;;3.40;;
8100;SDS011;4093;53.470;9.832;2023-07-29T11:16:02;5.88;;;3.45;;
8100;SDS011;4093;53.470;9.832;2023-07-29T11:18:31;3.92;;;3.42;;
8100;SDS011;4093;53.470;9.832;2023-07-29T11:21:00;3.60;;;3.30;;
8100;SDS011;4093;53.470;9.832;2023-07-29T11:23:29;7.38;;;6.28;;
8100;SDS011;4093;53.470;9.832;2023-07-29T11:25:58;7.00;;;6.22;;
8100;SDS011;4093;53.470;9.832;2023-07-29T11:28:27;6.20;;;5.60;;
8100;SDS011;4093;53.470;9.832;2023-07-29T11:30:56;5.88;;;5.13;;
8100;SDS011;4093;53.470;9.832;2023-07-29T11:33:26;6.20;;;5.53;;
8100;SDS011;4093;53.470;9.832;2023-07-29T11:35:55;6.75;;;5.20;;
8100;SDS011;4093;53.470;9.832;2023-07-29T11:38:23;5.18;;;4.68;;
8100;SDS011;4093;53.470;9.832;2023-07-29T11:40:54;5.55;;;4.88;;
8100;SDS011;4093;53.470;9.832;2023-07-29T11:43:23;5.18;;;4.63;;
8100;SDS011;4093;53.470;9.832;2023-07-29T11:45:51;5.78;;;4.70;;
8100;SDS011;4093;53.470;9.832;2023-07-29T11:48:27;4.45;;;4.03;;
8100;SDS011;4093;53.470;9.832;2023-07-29T11:50:55;4.90;;;4.43;;
8100;SDS011;4093;53.470;9.832;2023-07-29T11:53:25;7.95;;;4.82;;
8100;SDS011;4093;53.470;9.832;2023-07-29T11:55:54;5.28;;;3.92;;
8100;SDS011;4093;53.470;9.832;2023-07-29T11:58:23;4.65;;;4.05;;
8100;SDS011;4093;53.470;9.832;2023-07-29T12:00:51;4.45;;;3.67;;
8100;SDS011;4093;53.470;9.832;2023-07-29T12:03:18;4.18;;;3.40;;
8100;SDS011;4093;53.470;9.832;2023-07-29T12:05:49;3.83;;;3.13;;
8100;SDS011;4093;53.470;9.832;2023-07-29T12:08:17;5.50;;;3.45;;
8100;SDS011;4093;53.470;9.832;2023-07-29T12:10:45;4.50;;;3.25;;
8100;SDS011;4093;53.470;9.832;2023-07-29T12:13:14;4.38;;;3.28;;
8100;SDS011;4093;53.470;9.832;2023-07-29T12:15:42;3.40;;;2.67;;
8100;SDS011;4093;53.470;9.832;2023-07-29T12:18:09;2.90;;;2.70;;
8100;SDS011;4093;53.470;9.832;2023-07-29T12:20:37;3.70;;;2.58;;
8100;SDS011;4093;53.470;9.832;2023-07-29T12:23:06;4.32;;;2.97;;
8100;SDS011;4093;53.470;9.832;2023-07-29T12:25:34;3.15;;;2.72;;
8100;SDS011;4093;53.470;9.832;2023-07-29T12:28:03;2.60;;;2.40;;
8100;SDS011;4093;53.470;9.832;2023-07-29T12:30:31;4.03;;;2.67;;
8100;SDS011;4093;53.470;9.832;2023-07-29T12:32:59;3.58;;;2.60;;
8100;SDS011;4093;53.470;9.832;2023-07-29T12:35:33;3.80;;;2.67;;
8100;SDS011;4093;53.470;9.832;2023-07-29T12:38:02;4.43;;;2.75;;
8100;SDS011;4093;53.470;9.832;2023-07-29T12:40:31;2.85;;;2.63;;
8100;SDS011;4093;53.470;9.832;2023-07-29T12:42:59;2.80;;;2.60;;
8100;SDS011;4093;53.470;9.832;2023-07-29T12:45:27;3.28;;;2.95;;
8100;SDS011;4093;53.470;9.832;2023-07-29T12:48:02;3.03;;;2.72;;
8100;SDS011;4093;53.470;9.832;2023-07-29T12:50:30;2.92;;;2.72;;
8100;SDS011;4093;53.470;9.832;2023-07-29T12:52:58;2.95;;;2.75;;
8100;SDS011;4093;53.470;9.832;2023-07-29T12:55:26;2.83;;;2.63;;
8100;SDS011;4093;53.470;9.832;2023-07-29T12:57:55;2.95;;;2.67;;
8100;SDS011;4093;53.470;9.832;2023-07-29T13:00:24;3.00;;;2.60;;
8100;SDS011;4093;53.470;9.832;2023-07-29T13:02:52;3.53;;;2.67;;
8100;SDS011;4093;53.470;9.832;2023-07-29T13:05:20;5.05;;;2.60;;
8100;SDS011;4093;53.470;9.832;2023-07-29T13:07:48;3.38;;;2.90;;
8100;SDS011;4093;53.470;9.832;2023-07-29T13:10:16;2.65;;;2.45;;
8100;SDS011;4093;53.470;9.832;2023-07-29T13:12:44;3.58;;;2.80;;
8100;SDS011;4093;53.470;9.832;2023-07-29T13:15:13;3.40;;;2.60;;
8100;SDS011;4093;53.470;9.832;2023-07-29T13:17:40;3.63;;;2.78;;
8100;SDS011;4093;53.470;9.832;2023-07-29T13:20:08;5.72;;;2.50;;
8100;SDS011;4093;53.470;9.832;2023-07-29T13:22:36;3.92;;;2.60;;
8100;SDS011;4093;53.470;9.832;2023-07-29T13:25:04;2.90;;;2.67;;
8100;SDS011;4093;53.470;9.832;2023-07-29T13:27:32;2.85;;;2.60;;
8100;SDS011;4093;53.470;9.832;2023-07-29T13:30:00;3.53;;;2.53;;
8100;SDS011;4093;53.470;9.832;2023-07-29T13:32:29;3.30;;;2.50;;
8100;SDS011;4093;53.470;9.832;2023-07-29T13:34:57;3.13;;;2.70;;
8100;SDS011;4093;53.470;9.832;2023-07-29T13:37:24;3.40;;;2.80;;
8100;SDS011;4093;53.470;9.832;2023-07-29T13:39:52;2.95;;;2.70;;
8100;SDS011;4093;53.470;9.832;2023-07-29T13:42:20;2.70;;;2.47;;
8100;SDS011;4093;53.470;9.832;2023-07-29T13:44:47;2.65;;;2.45;;
8100;SDS011;4093;53.470;9.832;2023-07-29T13:47:15;2.80;;;2.60;;
8100;SDS011;4093;53.470;9.832;2023-07-29T13:49:44;3.95;;;2.60;;
8100;SDS011;4093;53.470;9.832;2023-07-29T13:52:12;3.17;;;2.60;;
8100;SDS011;4093;53.470;9.832;2023-07-29T13:54:41;2.58;;;2.38;;
8100;SDS011;4093;53.470;9.832;2023-07-29T13:57:08;4.10;;;2.80;;
8100;SDS011;4093;53.470;9.832;2023-07-29T13:59:36;4.30;;;2.78;;
8100;SDS011;4093;53.470;9.832;2023-07-29T14:02:05;3.00;;;2.70;;
8100;SDS011;4093;53.470;9.832;2023-07-29T14:04:33;2.90;;;2.60;;
8100;SDS011;4093;53.470;9.832;2023-07-29T14:07:02;2.97;;;2.40;;
8100;SDS011;4093;53.470;9.832;2023-07-29T14:09:31;3.92;;;2.53;;
8100;SDS011;4093;53.470;9.832;2023-07-29T14:11:59;4.03;;;2.58;;
8100;SDS011;4093;53.470;9.832;2023-07-29T14:14:26;3.33;;;2.70;;
8100;SDS011;4093;53.470;9.832;2023-07-29T14:16:54;7.45;;;2.60;;
8100;SDS011;4093;53.470;9.832;2023-07-29T14:19:22;2.85;;;2.30;;
8100;SDS011;4093;53.470;9.832;2023-07-29T14:21:50;6.15;;;2.53;;
8100;SDS011;4093;53.470;9.832;2023-07-29T14:24:19;3.17;;;2.25;;
8100;SDS011;4093;53.470;9.832;2023-07-29T14:26:48;3.13;;;2.50;;
8100;SDS011;4093;53.470;9.832;2023-07-29T14:29:15;2.53;;;2.25;;
8100;SDS011;4093;53.470;9.832;2023-07-29T14:31:43;3.55;;;2.80;;
8100;SDS011;4093;53.470;9.832;2023-07-29T14:34:11;2.80;;;2.60;;
8100;SDS011;4093;53.470;9.832;2023-07-29T14:36:39;4.07;;;2.42;;
8100;SDS011;4093;53.470;9.832;2023-07-29T14:39:07;2.88;;;2.67;;
8100;SDS011;4093;53.470;9.832;2023-07-29T14:41:36;3.20;;;2.90;;
8100;SDS011;4093;53.470;9.832;2023-07-29T14:44:03;2.67;;;2.47;;
8100;SDS011;4093;53.470;9.832;2023-07-29T14:46:31;2.55;;;2.35;;
8100;SDS011;4093;53.470;9.832;2023-07-29T14:48:59;3.47;;;2.80;;
8100;SDS011;4093;53.470;9.832;2023-07-29T14:51:27;3.78;;;2.60;;
8100;SDS011;4093;53.470;9.832;2023-07-29T14:53:55;2.78;;;2.58;;
8100;SDS011;4093;53.470;9.832;2023-07-29T14:56:22;3.08;;;2.67;;
8100;SDS011;4093;53.470;9.832;2023-07-29T14:58:51;3.97;;;2.30;;
8100;SDS011;4093;53.470;9.832;2023-07-29T15:01:19;2.92;;;2.40;;
8100;SDS011;4093;53.470;9.832;2023-07-29T15:03:47;3.13;;;2.58;;
8100;SDS011;4093;53.470;9.832;2023-07-29T15:06:14;2.90;;;2.35;;
8100;SDS011;4093;53.470;9.832;2023-07-29T15:08:42;2.78;;;2.58;;
8100;SDS011;4093;53.470;9.832;2023-07-29T15:11:10;2.90;;;2.70;;
8100;SDS011;4093;53.470;9.832;2023-07-29T15:13:38;2.95;;;2.55;;